createdAt,value
2018-09-14T00:00:37.680Z,7.37
2018-09-14T00:03:08.080Z,9.45
2018-09-14T00:05:37.196Z,6.37
2018-09-14T00:09:35.242Z,6.58
2018-09-14T00:12:03.724Z,7.87
2018-09-14T00:14:32.507Z,8.05
2018-09-14T00:17:01.410Z,7.67
2018-09-14T00:19:30.365Z,8.90
2018-09-14T00:21:59.075Z,6.75
2018-09-14T00:24:27.681Z,7.95
2018-09-14T00:26:56.311Z,6.10
2018-09-14T00:29:28.010Z,5.72
2018-09-14T00:31:56.656Z,8.48
2018-09-14T00:34:25.432Z,5.72
2018-09-14T00:36:54.135Z,5.70
2018-09-14T00:39:22.976Z,7.78
2018-09-14T00:41:52.735Z,6.50
2018-09-14T00:44:21.525Z,7.00
2018-09-14T00:46:50.166Z,5.58
2018-09-14T00:49:20.394Z,6.50
2018-09-14T00:51:48.914Z,5.70
2018-09-14T00:54:20.705Z,6.17
2018-09-14T00:56:49.476Z,6.75
2018-09-14T00:59:18.383Z,6.47
2018-09-14T01:01:47.104Z,5.78
2018-09-14T01:04:15.986Z,5.62
2018-09-14T01:06:44.480Z,7.33
2018-09-14T01:09:18.179Z,8.08
2018-09-14T01:11:47.393Z,6.15
2018-09-14T01:14:15.824Z,7.17
2018-09-14T01:16:44.643Z,7.80
2018-09-14T01:19:13.161Z,6.33
2018-09-14T01:21:42.280Z,6.62
2018-09-14T01:24:10.742Z,6.60
2018-09-14T01:26:39.261Z,6.67
2018-09-14T01:29:08.016Z,6.97
2018-09-14T01:31:36.832Z,8.30
2018-09-14T01:34:05.386Z,8.40
2018-09-14T01:36:34.592Z,8.23
2018-09-14T01:39:03.434Z,8.65
2018-09-14T01:41:31.781Z,10.25
2018-09-14T01:44:00.630Z,10.03
2018-09-14T01:46:29.339Z,12.55
2018-09-14T01:48:58.314Z,8.18
2018-09-14T01:51:27.009Z,8.75
2018-09-14T01:53:55.665Z,8.33
2018-09-14T02:03:23.962Z,8.50
2018-09-14T02:05:52.416Z,9.55
2018-09-14T02:08:21.512Z,11.60
2018-09-14T02:10:52.645Z,11.65
2018-09-14T02:13:21.375Z,11.03
2018-09-14T02:15:50.066Z,10.38
2018-09-14T02:18:18.699Z,9.23
2018-09-14T02:20:47.137Z,8.30
2018-09-14T02:23:15.869Z,9.80
2018-09-14T02:25:44.580Z,10.18
2018-09-14T02:28:14.068Z,9.65
2018-09-14T02:30:42.646Z,14.10
2018-09-14T02:33:11.258Z,13.30
2018-09-14T02:35:40.136Z,11.38
2018-09-14T02:38:08.910Z,14.47
2018-09-14T02:40:37.282Z,11.10
2018-09-14T02:43:05.889Z,15.15
2018-09-14T02:45:34.542Z,10.25
2018-09-14T02:48:03.558Z,12.20
2018-09-14T02:50:32.166Z,12.28
2018-09-14T02:53:01.221Z,11.93
2018-09-14T02:55:29.721Z,12.50
2018-09-14T02:57:58.294Z,16.70
2018-09-14T03:00:26.830Z,13.08
2018-09-14T03:02:55.449Z,9.88
2018-09-14T03:05:24.340Z,11.70
2018-09-14T03:07:53.653Z,11.97
2018-09-14T03:10:22.832Z,13.58
2018-09-14T03:12:51.621Z,9.68
2018-09-14T03:15:20.391Z,12.82
2018-09-14T03:17:50.997Z,10.30
2018-09-14T03:20:19.760Z,8.43
2018-09-14T03:22:49.595Z,9.00
2018-09-14T03:25:18.153Z,13.95
2018-09-14T03:27:46.773Z,11.45
2018-09-14T03:30:15.553Z,8.05
2018-09-14T03:32:44.242Z,11.75
2018-09-14T03:35:14.150Z,11.75
2018-09-14T03:37:43.764Z,11.43
2018-09-14T03:40:12.602Z,11.40
2018-09-14T03:42:41.352Z,10.32
2018-09-14T03:45:10.044Z,8.93
2018-09-14T03:47:39.984Z,9.43
2018-09-14T03:50:08.290Z,13.70
2018-09-14T03:52:37.330Z,11.20
2018-09-14T03:55:05.788Z,9.18
2018-09-14T03:57:35.605Z,10.90
2018-09-14T04:00:04.265Z,10.58
2018-09-14T04:02:33.005Z,9.35
2018-09-14T04:05:01.843Z,10.28
2018-09-14T04:07:30.798Z,13.28
2018-09-14T04:09:59.613Z,11.00
2018-09-14T04:12:28.436Z,10.32
2018-09-14T04:14:57.247Z,10.18
2018-09-14T04:17:25.732Z,10.93
2018-09-14T04:19:54.461Z,9.58
2018-09-14T04:22:23.145Z,11.48
2018-09-14T04:24:51.687Z,11.10
2018-09-14T04:27:20.615Z,11.65
2018-09-14T04:29:49.299Z,9.68
2018-09-14T04:32:18.228Z,9.38
2018-09-14T04:34:46.668Z,11.10
2018-09-14T04:37:15.200Z,10.75
2018-09-14T04:39:43.877Z,10.60
2018-09-14T04:42:12.745Z,10.80
2018-09-14T04:44:41.272Z,8.78
2018-09-14T04:47:09.947Z,11.22
2018-09-14T04:49:38.836Z,10.00
2018-09-14T04:52:08.242Z,11.08
2018-09-14T04:54:36.764Z,9.60
2018-09-14T04:57:05.504Z,11.45
2018-09-14T04:59:34.586Z,11.28
2018-09-14T05:02:03.181Z,12.15
2018-09-14T05:04:35.025Z,9.95
2018-09-14T05:07:03.996Z,9.73
2018-09-14T05:09:32.634Z,10.58
2018-09-14T05:12:01.386Z,11.15
2018-09-14T05:14:29.989Z,12.58
2018-09-14T05:16:59.618Z,10.98
2018-09-14T05:19:28.440Z,11.03
2018-09-14T05:21:56.850Z,13.18
2018-09-14T05:24:25.572Z,10.60
2018-09-14T05:26:54.501Z,10.13
2018-09-14T05:29:23.221Z,15.48
2018-09-14T05:31:52.036Z,10.78
2018-09-14T05:34:20.813Z,14.87
2018-09-14T05:36:49.965Z,11.10
2018-09-14T05:39:18.235Z,13.30
2018-09-14T05:41:47.141Z,15.65
2018-09-14T05:44:15.896Z,12.20
2018-09-14T05:46:45.536Z,12.70
2018-09-14T05:49:14.310Z,12.80
2018-09-14T05:51:43.120Z,11.35
2018-09-14T05:54:11.821Z,11.43
2018-09-14T05:56:40.656Z,12.85
2018-09-14T05:59:09.272Z,11.45
2018-09-14T06:01:38.405Z,11.10
2018-09-14T06:04:06.708Z,12.95
2018-09-14T06:06:35.275Z,14.63
2018-09-14T06:09:06.809Z,11.48
2018-09-14T06:11:35.642Z,11.93
2018-09-14T06:14:04.456Z,12.55
2018-09-14T06:16:34.433Z,14.03
2018-09-14T06:19:03.173Z,10.72
2018-09-14T06:21:31.845Z,13.03
2018-09-14T06:24:00.202Z,12.82
2018-09-14T06:26:28.670Z,12.45
2018-09-14T06:28:57.378Z,12.13
2018-09-14T06:31:26.156Z,13.58
2018-09-14T06:33:54.712Z,13.93
2018-09-14T06:36:23.712Z,16.48
2018-09-14T06:38:52.489Z,14.80
2018-09-14T06:41:22.321Z,13.93
2018-09-14T06:43:50.744Z,13.93
2018-09-14T06:46:19.198Z,14.75
2018-09-14T06:48:47.820Z,14.63
2018-09-14T06:51:17.617Z,13.38
2018-09-14T06:53:47.387Z,16.12
2018-09-14T06:56:16.021Z,16.67
2018-09-14T06:58:44.621Z,16.82
2018-09-14T07:01:13.322Z,14.45
2018-09-14T07:03:41.936Z,15.65
2018-09-14T07:06:10.627Z,15.68
2018-09-14T07:08:39.221Z,19.95
2018-09-14T07:11:07.724Z,15.68
2018-09-14T07:13:36.348Z,15.13
2018-09-14T07:16:04.824Z,15.45
2018-09-14T07:18:33.749Z,15.32
2018-09-14T07:21:02.448Z,17.85
2018-09-14T07:23:31.277Z,17.30
2018-09-14T07:25:59.902Z,13.83
2018-09-14T07:28:28.393Z,14.68
2018-09-14T07:30:57.230Z,15.38
2018-09-14T07:33:25.993Z,15.20
2018-09-14T07:35:54.628Z,15.13
2018-09-14T07:38:24.590Z,15.80
2018-09-14T07:40:53.008Z,13.88
2018-09-14T07:43:21.834Z,15.53
2018-09-14T07:45:50.598Z,15.78
2018-09-14T07:48:19.385Z,17.45
2018-09-14T07:50:47.937Z,16.40
2018-09-14T07:53:17.013Z,17.40
2018-09-14T07:55:45.533Z,18.27
2018-09-14T07:58:14.390Z,15.72
2018-09-14T08:00:43.085Z,15.68
2018-09-14T08:03:12.005Z,15.93
2018-09-14T08:05:40.412Z,16.82
2018-09-14T08:08:09.170Z,17.48
2018-09-14T08:10:37.937Z,15.43
2018-09-14T08:13:06.575Z,15.72
2018-09-14T08:15:35.251Z,16.97
2018-09-14T08:18:03.952Z,15.53
2018-09-14T08:20:32.888Z,17.07
2018-09-14T08:23:01.368Z,15.15
2018-09-14T08:25:30.009Z,15.60
2018-09-14T08:27:58.728Z,20.48
2018-09-14T08:30:27.543Z,15.78
2018-09-14T08:32:55.976Z,15.55
2018-09-14T08:35:24.736Z,16.48
2018-09-14T08:37:53.608Z,15.72
2018-09-14T08:40:22.364Z,15.58
2018-09-14T08:42:51.182Z,16.90
2018-09-14T08:45:19.859Z,16.57
2018-09-14T08:47:48.836Z,17.27
2018-09-14T08:50:17.320Z,15.05
2018-09-14T08:52:46.157Z,16.42
2018-09-14T08:55:14.789Z,16.27
2018-09-14T08:57:43.312Z,16.70
2018-09-14T09:00:11.977Z,21.23
2018-09-14T09:02:40.542Z,13.10
2018-09-14T09:05:09.177Z,10.75
2018-09-14T09:07:37.868Z,11.18
2018-09-14T09:10:06.493Z,11.48
2018-09-14T09:12:35.494Z,11.15
2018-09-14T09:15:04.346Z,11.50
2018-09-14T09:17:34.017Z,11.40
2018-09-14T09:20:02.696Z,14.35
2018-09-14T09:22:31.323Z,11.53
2018-09-14T09:25:00.080Z,11.18
2018-09-14T09:27:28.757Z,11.60
2018-09-14T09:29:57.962Z,11.03
2018-09-14T09:32:27.121Z,14.50
2018-09-14T09:34:55.884Z,14.03
2018-09-14T09:37:24.520Z,11.88
2018-09-14T09:39:53.470Z,13.93
2018-09-14T09:42:21.948Z,15.03
2018-09-14T09:44:50.665Z,12.30
2018-09-14T09:47:19.310Z,11.73
2018-09-14T09:49:47.888Z,13.95
2018-09-14T09:52:17.916Z,12.63
2018-09-14T09:54:46.349Z,12.63
2018-09-14T09:57:15.079Z,14.68
2018-09-14T09:59:43.833Z,14.07
2018-09-14T10:02:17.884Z,16.87
2018-09-14T10:04:52.368Z,15.55
2018-09-14T10:07:21.636Z,14.30
2018-09-14T10:09:50.349Z,13.75
2018-09-14T10:12:19.179Z,14.38
2018-09-14T10:14:48.035Z,14.30
2018-09-14T10:17:16.473Z,14.53
2018-09-14T10:19:48.234Z,16.37
2018-09-14T10:22:16.863Z,16.27
2018-09-14T10:24:45.702Z,15.78
2018-09-14T10:27:14.296Z,18.17
2018-09-14T10:29:42.927Z,13.93
2018-09-14T10:32:14.631Z,20.70
2018-09-14T10:34:43.366Z,15.53
2018-09-14T10:37:12.110Z,17.50
2018-09-14T10:39:40.941Z,15.45
2018-09-14T10:42:09.709Z,17.82
2018-09-14T10:44:38.921Z,15.53
2018-09-14T10:47:07.425Z,16.25
2018-09-14T10:49:36.273Z,14.70
2018-09-14T10:52:05.253Z,12.95
2018-09-14T10:54:33.697Z,12.60
2018-09-14T10:57:02.652Z,14.23
2018-09-14T10:59:31.562Z,13.08
2018-09-14T11:02:00.196Z,11.97
2018-09-14T11:04:29.703Z,12.68
2018-09-14T11:06:58.888Z,14.70
2018-09-14T11:09:28.174Z,12.37
2018-09-14T11:11:56.679Z,9.18
2018-09-14T11:14:25.432Z,7.05
2018-09-14T11:16:54.224Z,7.10
2018-09-14T11:19:23.096Z,8.88
2018-09-14T11:21:51.450Z,10.48
2018-09-14T11:24:20.286Z,6.95
2018-09-14T11:26:48.954Z,7.50
2018-09-14T11:29:17.666Z,5.50
2018-09-14T11:31:46.459Z,8.60
2018-09-14T11:34:14.966Z,5.58
2018-09-14T11:36:43.701Z,6.97
2018-09-14T11:39:12.454Z,7.83
2018-09-14T11:41:41.201Z,8.20
2018-09-14T11:44:09.928Z,4.03
2018-09-14T11:46:38.643Z,4.83
2018-09-14T11:49:07.389Z,4.25
2018-09-14T11:51:36.454Z,4.58
2018-09-14T11:54:06.246Z,4.75
2018-09-14T11:56:35.848Z,4.08
2018-09-14T11:59:04.342Z,5.97
2018-09-14T12:01:33.032Z,4.15
2018-09-14T12:04:02.120Z,4.10
2018-09-14T12:06:31.219Z,2.80
2018-09-14T12:09:00.741Z,3.08
2018-09-14T12:11:29.424Z,5.28
2018-09-14T12:13:58.136Z,4.05
2018-09-14T12:16:26.564Z,5.47
2018-09-14T12:18:55.645Z,5.15
2018-09-14T12:21:24.722Z,4.15
2018-09-14T12:23:53.463Z,2.58
2018-09-14T12:26:23.109Z,3.50
2018-09-14T12:28:53.074Z,4.00
2018-09-14T12:38:14.663Z,3.35
2018-09-14T12:40:44.856Z,3.05
2018-09-14T12:43:14.857Z,5.67
2018-09-14T12:45:44.598Z,5.97
2018-09-14T12:48:13.434Z,2.80
2018-09-14T12:50:43.589Z,2.15
2018-09-14T12:56:22.820Z,2.62
2018-09-14T12:58:52.015Z,1.77
2018-09-14T13:01:23.484Z,3.55
2018-09-14T13:03:59.992Z,4.87
2018-09-14T13:06:29.225Z,4.75
2018-09-14T13:17:38.874Z,4.12
2018-09-14T13:20:07.484Z,7.22
2018-09-14T13:22:36.033Z,7.70
2018-09-14T13:27:58.438Z,3.42
2018-09-14T13:30:27.138Z,2.85
2018-09-14T13:32:55.913Z,4.80
2018-09-14T13:35:39.172Z,3.35
2018-09-14T13:41:01.786Z,3.92
2018-09-14T13:43:53.484Z,2.58
2018-09-14T13:46:22.430Z,2.62
2018-09-14T13:54:43.774Z,2.50
2018-09-14T14:05:52.132Z,3.75
2018-09-14T14:08:20.845Z,2.40
2018-09-14T14:10:49.458Z,3.98
2018-09-14T14:13:18.229Z,3.15
2018-09-14T14:15:46.970Z,3.17
2018-09-14T14:18:15.777Z,4.87
2018-09-14T14:20:44.442Z,2.47
2018-09-14T14:23:13.230Z,3.52
2018-09-14T14:25:41.961Z,6.05
2018-09-14T14:28:10.955Z,5.85
2018-09-14T14:33:33.146Z,3.02
2018-09-14T14:36:02.122Z,5.55
2018-09-14T14:38:30.908Z,4.78
2018-09-14T14:41:00.743Z,4.85
2018-09-14T14:46:22.161Z,3.83
2018-09-14T14:51:47.561Z,6.60
2018-09-14T14:54:16.172Z,7.25
2018-09-14T14:56:51.684Z,4.83
2018-09-14T14:59:26.399Z,7.40
2018-09-14T15:04:48.104Z,5.78
2018-09-14T15:13:17.296Z,5.10
2018-09-14T15:15:46.853Z,3.77
2018-09-14T15:18:29.593Z,4.90
2018-09-14T15:20:57.963Z,4.37
2018-09-14T15:23:26.835Z,5.42
2018-09-14T15:26:02.121Z,8.60
2018-09-14T15:28:31.015Z,3.60
2018-09-14T15:31:00.251Z,3.75
2018-09-14T15:33:28.881Z,4.22
2018-09-14T15:36:00.841Z,6.67
2018-09-14T15:41:23.297Z,7.35
2018-09-14T15:43:52.157Z,5.78
2018-09-14T15:46:20.957Z,2.83
2018-09-14T15:48:52.949Z,2.98
2018-09-14T15:51:21.829Z,3.12
2018-09-14T15:56:44.568Z,3.40
2018-09-14T16:06:03.496Z,4.25
2018-09-14T16:08:32.021Z,6.05
2018-09-14T16:11:00.995Z,2.55
2018-09-14T16:13:45.984Z,3.42
2018-09-14T16:16:17.612Z,3.30
2018-09-14T16:18:47.778Z,3.67
2018-09-14T16:24:08.966Z,4.15
2018-09-14T16:26:37.705Z,2.98
2018-09-14T16:29:06.586Z,4.22
2018-09-14T16:31:35.450Z,4.05
2018-09-14T16:34:04.071Z,4.47
2018-09-14T16:36:32.897Z,3.75
2018-09-14T16:41:56.969Z,3.00
2018-09-14T16:44:25.796Z,3.33
2018-09-14T16:50:09.491Z,2.77
2018-09-14T16:52:37.830Z,4.20
2018-09-14T16:55:06.630Z,2.98
2018-09-14T16:57:35.616Z,3.20
2018-09-14T17:00:06.165Z,4.12
2018-09-14T17:02:45.780Z,3.58
2018-09-14T17:05:14.494Z,3.80
2018-09-14T17:10:36.837Z,3.60
2018-09-14T17:16:00.519Z,4.50
2018-09-14T17:18:42.900Z,6.83
2018-09-14T17:21:12.388Z,1.70
2018-09-14T17:23:53.241Z,2.30
2018-09-14T17:26:21.877Z,4.87
2018-09-14T17:29:02.895Z,5.20
2018-09-14T17:31:32.082Z,4.72
2018-09-14T17:37:00.807Z,2.55
2018-09-14T17:39:30.107Z,2.58
2018-09-14T17:53:31.908Z,6.80
2018-09-14T17:56:00.370Z,3.50
2018-09-14T17:58:29.340Z,7.28
2018-09-14T18:03:54.038Z,2.83
2018-09-14T18:06:23.480Z,2.65
2018-09-14T18:13:51.956Z,3.33
2018-09-14T18:19:20.252Z,4.83
2018-09-14T18:21:55.070Z,2.85
2018-09-14T18:33:03.769Z,3.27
2018-09-14T18:38:47.036Z,5.40
2018-09-14T18:41:15.505Z,3.33
2018-09-14T18:43:43.841Z,4.80
2018-09-14T18:51:59.425Z,4.33
2018-09-14T18:54:27.919Z,2.60
2018-09-14T18:56:57.116Z,3.62
2018-09-14T18:59:27.708Z,5.72
2018-09-14T19:01:56.329Z,3.92
2018-09-14T19:04:30.507Z,4.17
2018-09-14T19:06:59.240Z,5.62
2018-09-14T19:15:29.704Z,3.90
2018-09-14T19:17:58.823Z,3.22
2018-09-14T19:20:27.874Z,4.62
2018-09-14T19:22:56.761Z,3.67
2018-09-14T19:31:11.912Z,5.90
2018-09-14T19:33:40.627Z,7.78
2018-09-14T19:39:03.344Z,4.70
2018-09-14T19:41:32.101Z,5.55
2018-09-14T19:44:01.511Z,6.33
2018-09-14T19:47:34.092Z,6.75
2018-09-14T19:50:04.719Z,4.42
2018-09-14T19:52:33.407Z,3.60
2018-09-14T19:55:02.147Z,3.70
2018-09-14T19:57:37.401Z,4.28
2018-09-14T20:02:58.275Z,7.28
2018-09-14T20:05:27.453Z,5.00
2018-09-14T20:07:56.380Z,5.78
2018-09-14T20:10:25.016Z,2.95
2018-09-14T20:13:06.308Z,5.40
2018-09-14T20:18:47.331Z,5.42
2018-09-14T20:27:03.121Z,4.42
2018-09-14T20:32:39.761Z,3.02
2018-09-14T20:35:08.892Z,4.78
2018-09-14T20:37:38.090Z,5.90
2018-09-14T20:40:07.804Z,4.40
2018-09-14T20:51:29.530Z,2.83
2018-09-14T21:02:39.279Z,4.30
2018-09-14T21:08:01.645Z,5.83
2018-09-14T21:10:30.168Z,3.45
2018-09-14T21:12:58.772Z,4.78
2018-09-14T21:15:43.645Z,5.00
2018-09-14T21:18:12.084Z,5.53
2018-09-14T21:20:40.765Z,2.85
2018-09-14T21:26:03.432Z,5.58
2018-09-14T21:28:31.992Z,9.98
2018-09-14T21:31:00.810Z,5.17
2018-09-14T21:45:04.443Z,5.40
2018-09-14T21:47:32.795Z,5.10
2018-09-14T21:50:01.440Z,5.42
2018-09-14T22:04:02.464Z,6.37
2018-09-14T22:06:31.286Z,4.62
2018-09-14T22:09:00.004Z,5.05
2018-09-14T22:11:34.044Z,4.37
2018-09-14T22:14:03.013Z,5.53
2018-09-14T22:16:31.776Z,6.00
2018-09-14T22:36:21.333Z,4.53
2018-09-14T22:38:50.149Z,3.08
2018-09-14T22:41:18.763Z,4.15
2018-09-14T22:49:44.140Z,4.67
2018-09-14T22:52:12.309Z,6.55
2018-09-14T22:54:40.768Z,5.20
2018-09-14T23:02:56.382Z,4.78
2018-09-14T23:08:18.945Z,4.20
2018-09-14T23:13:41.555Z,6.00
2018-09-14T23:24:49.551Z,6.62
2018-09-14T23:35:57.920Z,7.28
2018-09-14T23:38:27.087Z,5.20
2018-09-14T23:40:55.891Z,5.03
2018-09-14T23:46:17.621Z,7.00
2018-09-14T23:48:45.918Z,5.90
2018-09-14T23:55:37.874Z,4.45
2018-09-14T23:58:06.600Z,5.20
